createdAt,value
2018-08-24T00:00:06.318Z,22.03
2018-08-24T00:05:13.176Z,21.97
2018-08-24T00:10:19.287Z,21.93
2018-08-24T00:15:23.906Z,21.81
2018-08-24T00:20:27.957Z,21.80
2018-08-24T00:25:32.238Z,21.80
2018-08-24T00:30:38.415Z,21.80
2018-08-24T00:35:43.448Z,21.85
2018-08-24T00:40:51.647Z,21.79
2018-08-24T00:45:56.050Z,21.85
2018-08-24T00:51:00.302Z,21.93
2018-08-24T00:56:05.670Z,21.95
2018-08-24T01:01:12.330Z,21.94
2018-08-24T01:06:25.002Z,21.94
2018-08-24T01:11:35.244Z,21.94
2018-08-24T01:16:45.468Z,21.93
2018-08-24T01:21:50.869Z,21.82
2018-08-24T01:27:01.500Z,21.79
2018-08-24T01:32:07.084Z,21.76
2018-08-24T01:37:13.507Z,21.72
2018-08-24T01:42:18.417Z,21.70
2018-08-24T01:47:23.480Z,21.68
2018-08-24T01:52:27.422Z,21.65
2018-08-24T01:57:35.545Z,21.49
2018-08-24T02:02:43.249Z,21.43
2018-08-24T02:07:53.252Z,21.41
2018-08-24T02:13:06.460Z,21.37
2018-08-24T02:18:21.632Z,21.38
2018-08-24T02:23:32.312Z,21.33
2018-08-24T02:28:39.644Z,21.34
2018-08-24T02:33:45.246Z,21.33
2018-08-24T02:38:51.868Z,21.28
2018-08-24T02:43:56.023Z,21.22
2018-08-24T02:49:00.098Z,21.26
2018-08-24T02:54:04.440Z,21.25
2018-08-24T02:59:10.228Z,21.23
2018-08-24T03:04:16.195Z,21.23
2018-08-24T03:09:22.810Z,21.19
2018-08-24T03:14:28.653Z,21.20
2018-08-24T03:19:34.493Z,21.16
2018-08-24T03:24:38.792Z,21.20
2018-08-24T03:29:43.297Z,21.12
2018-08-24T03:34:47.208Z,21.12
2018-08-24T03:39:52.161Z,21.09
2018-08-24T03:44:56.543Z,21.10
2018-08-24T03:50:02.748Z,21.08
2018-08-24T03:55:07.439Z,21.04
2018-08-24T04:00:16.228Z,21.02
2018-08-24T04:05:20.456Z,21.01
2018-08-24T04:10:25.300Z,20.92
2018-08-24T04:15:30.104Z,20.85
2018-08-24T04:20:36.393Z,20.82
2018-08-24T04:25:42.875Z,20.87
2018-08-24T04:30:47.939Z,20.88
2018-08-24T04:35:53.116Z,20.80
2018-08-24T04:40:58.289Z,20.71
2018-08-24T04:46:03.566Z,20.71
2018-08-24T04:51:08.645Z,20.67
2018-08-24T04:56:12.995Z,20.62
2018-08-24T05:01:17.603Z,20.55
2018-08-24T05:06:21.863Z,20.52
2018-08-24T05:11:26.981Z,20.61
2018-08-24T05:16:31.419Z,20.70
2018-08-24T05:21:35.974Z,20.68
2018-08-24T05:26:40.525Z,20.68
2018-08-24T05:31:45.211Z,20.65
2018-08-24T05:36:49.533Z,20.58
2018-08-24T05:41:53.867Z,20.57
2018-08-24T05:46:58.475Z,20.63
2018-08-24T05:52:03.597Z,20.66
2018-08-24T05:57:07.913Z,20.71
2018-08-24T06:02:12.927Z,20.81
2018-08-24T06:07:17.569Z,20.91
2018-08-24T06:12:22.110Z,21.00
2018-08-24T06:17:31.788Z,20.98
2018-08-24T06:22:36.139Z,20.89
2018-08-24T06:27:40.180Z,20.87
2018-08-24T06:32:44.170Z,20.94
2018-08-24T06:37:48.221Z,20.98
2018-08-24T06:42:53.886Z,20.97
2018-08-24T06:47:59.374Z,20.99
2018-08-24T06:53:04.575Z,21.00
2018-08-24T06:58:09.383Z,20.92
2018-08-24T07:03:13.864Z,20.92
2018-08-24T07:08:18.057Z,19.12
2018-08-24T07:13:23.476Z,20.90
2018-08-24T07:18:32.645Z,20.83
2018-08-24T07:23:37.728Z,20.98
2018-08-24T07:28:41.681Z,20.95
2018-08-24T07:33:44.063Z,20.90
2018-08-24T07:38:47.987Z,20.87
2018-08-24T07:43:52.658Z,20.88
2018-08-24T07:48:58.508Z,20.87
2018-08-24T07:54:04.601Z,20.93
2018-08-24T07:59:10.455Z,20.94
2018-08-24T08:04:16.571Z,20.96
2018-08-24T08:11:46.835Z,21.05
2018-08-24T08:16:53.638Z,21.29
2018-08-24T08:21:59.063Z,21.21
2018-08-24T08:27:04.199Z,21.21
2018-08-24T08:32:09.682Z,21.01
2018-08-24T08:37:15.994Z,21.01
2018-08-24T08:42:22.096Z,21.02
2018-08-24T08:47:28.480Z,21.00
2018-08-24T08:52:34.673Z,21.03
2018-08-24T08:57:40.348Z,21.02
2018-08-24T09:02:45.471Z,21.00
2018-08-24T09:07:47.962Z,20.90
2018-08-24T09:12:51.345Z,20.94
2018-08-24T09:18:00.468Z,21.05
2018-08-24T09:25:13.338Z,21.13
2018-08-24T09:30:17.271Z,21.13
2018-08-24T09:35:21.105Z,21.07
2018-08-24T09:40:31.295Z,20.99
2018-08-24T09:45:35.817Z,21.16
2018-08-24T09:50:45.324Z,21.14
2018-08-24T09:55:48.966Z,21.28
2018-08-24T10:00:58.454Z,21.32
2018-08-24T10:06:07.785Z,21.22
2018-08-24T10:11:12.074Z,20.98
2018-08-24T10:16:16.689Z,21.08
2018-08-24T10:21:20.913Z,21.50
2018-08-24T10:26:25.290Z,21.62
2018-08-24T10:31:29.479Z,22.12
2018-08-24T10:36:34.177Z,21.99
2018-08-24T10:41:39.237Z,21.19
2018-08-24T10:46:44.219Z,20.62
2018-08-24T10:54:16.635Z,19.87
2018-08-24T10:59:21.850Z,19.73
2018-08-24T11:04:26.901Z,19.68
2018-08-24T11:09:32.333Z,19.61
2018-08-24T11:14:37.789Z,19.67
2018-08-24T11:19:42.929Z,19.70
2018-08-24T11:24:48.418Z,19.78
2018-08-24T11:29:58.078Z,20.20
2018-08-24T11:35:04.067Z,21.06
2018-08-24T11:40:10.138Z,21.87
2018-08-24T11:45:15.401Z,22.19
2018-08-24T11:50:20.564Z,22.71
2018-08-24T11:55:24.631Z,23.09
2018-08-24T12:00:33.673Z,23.62
2018-08-24T12:05:36.029Z,24.12
2018-08-24T12:10:39.900Z,24.51
2018-08-24T12:15:42.743Z,24.90
2018-08-24T12:20:47.857Z,25.01
2018-08-24T12:25:52.848Z,24.18
2018-08-24T12:30:57.469Z,23.44
2018-08-24T12:35:59.908Z,23.03
2018-08-24T12:41:02.296Z,23.00
2018-08-24T12:46:05.449Z,24.19
2018-08-24T12:51:09.527Z,25.13
2018-08-24T12:56:19.902Z,25.81
2018-08-24T13:01:22.609Z,26.02
2018-08-24T13:06:24.833Z,26.03
2018-08-24T13:11:27.033Z,25.83
2018-08-24T13:16:30.827Z,24.89
2018-08-24T13:21:35.922Z,24.01
2018-08-24T13:26:41.632Z,23.73
2018-08-24T13:31:48.180Z,25.14
2018-08-24T13:36:53.006Z,26.43
2018-08-24T13:41:57.184Z,26.21
2018-08-24T13:47:01.276Z,25.09
2018-08-24T13:52:05.257Z,24.61
2018-08-24T13:57:10.432Z,24.98
2018-08-24T14:02:15.337Z,25.41
2018-08-24T14:07:20.590Z,26.22
2018-08-24T14:12:26.128Z,26.70
2018-08-24T14:17:31.456Z,27.12
2018-08-24T14:22:38.167Z,27.39
2018-08-24T14:27:43.618Z,26.43
2018-08-24T14:32:48.806Z,26.90
2018-08-24T14:37:54.351Z,26.98
2018-08-24T14:42:59.714Z,25.79
2018-08-24T14:48:03.788Z,25.34
2018-08-24T14:53:08.190Z,26.76
2018-08-24T14:58:12.925Z,26.59
2018-08-24T15:03:17.836Z,26.83
2018-08-24T15:08:22.839Z,27.38
2018-08-24T15:13:28.492Z,26.25
2018-08-24T15:18:33.681Z,25.01
2018-08-24T15:23:38.626Z,24.65
2018-08-24T15:28:44.452Z,26.02
2018-08-24T15:33:49.571Z,27.08
2018-08-24T15:38:55.937Z,26.19
2018-08-24T15:44:00.889Z,25.13
2018-08-24T15:49:05.591Z,24.93
2018-08-24T15:54:09.366Z,24.37
2018-08-24T15:59:14.062Z,24.20
2018-08-24T16:04:19.389Z,24.41
2018-08-24T16:09:24.720Z,24.05
2018-08-24T16:14:29.748Z,23.65
2018-08-24T16:19:33.547Z,23.97
2018-08-24T16:24:38.082Z,24.92
2018-08-24T16:29:42.559Z,25.46
2018-08-24T16:34:47.594Z,25.63
2018-08-24T16:39:52.482Z,25.24
2018-08-24T16:44:58.216Z,24.77
2018-08-24T16:50:03.495Z,24.23
2018-08-24T16:55:08.711Z,23.67
2018-08-24T17:00:13.680Z,23.37
2018-08-24T17:05:18.264Z,23.12
2018-08-24T17:10:24.455Z,22.95
2018-08-24T17:15:30.853Z,22.63
2018-08-24T17:20:38.203Z,22.22
2018-08-24T17:25:45.216Z,22.09
2018-08-24T17:30:52.574Z,21.90
2018-08-24T17:35:59.944Z,21.75
2018-08-24T17:41:07.105Z,21.65
2018-08-24T17:46:14.705Z,21.54
2018-08-24T17:51:22.552Z,21.34
2018-08-24T17:56:28.034Z,21.26
2018-08-24T18:01:33.694Z,21.07
2018-08-24T18:06:39.481Z,21.14
2018-08-24T18:11:45.402Z,20.95
2018-08-24T18:16:52.172Z,20.90
2018-08-24T18:21:58.091Z,20.53
2018-08-24T18:27:04.362Z,20.04
2018-08-24T18:32:11.230Z,19.70
2018-08-24T18:37:17.747Z,19.67
2018-08-24T18:42:23.240Z,16.94
2018-08-24T18:47:28.841Z,19.48
2018-08-24T18:52:34.528Z,19.57
2018-08-24T18:57:43.345Z,19.51
2018-08-24T19:02:50.994Z,19.38
2018-08-24T19:08:04.590Z,19.29
2018-08-24T19:13:18.394Z,19.18
2018-08-24T19:23:47.934Z,19.19
2018-08-24T19:28:59.276Z,19.14
2018-08-24T19:34:05.998Z,19.12
2018-08-24T19:39:15.214Z,19.02
2018-08-24T19:44:20.274Z,18.83
2018-08-24T19:49:24.680Z,18.74
2018-08-24T19:54:31.336Z,18.75
2018-08-24T19:59:39.554Z,18.79
2018-08-24T20:04:50.171Z,18.83
2018-08-24T20:10:09.005Z,18.67
2018-08-24T20:15:21.903Z,18.62
2018-08-24T20:20:29.262Z,18.65
2018-08-24T20:25:37.525Z,18.66
2018-08-24T20:30:43.177Z,18.54
2018-08-24T20:35:48.091Z,18.41
2018-08-24T20:40:53.100Z,18.30
2018-08-24T20:45:59.105Z,18.33
2018-08-24T20:51:05.308Z,18.22
2018-08-24T20:56:11.353Z,18.18
2018-08-24T21:01:17.459Z,18.15
2018-08-24T21:06:23.440Z,18.14
2018-08-24T21:11:35.148Z,17.98
2018-08-24T21:16:44.981Z,17.87
2018-08-24T21:21:56.066Z,17.58
2018-08-24T21:27:10.056Z,17.39
2018-08-24T21:32:20.793Z,17.37
2018-08-24T21:37:27.112Z,17.11
2018-08-24T21:42:32.406Z,17.10
2018-08-24T21:47:37.668Z,17.08
2018-08-24T21:52:46.318Z,17.12
2018-08-24T22:00:21.884Z,17.22
2018-08-24T22:05:29.185Z,17.26
2018-08-24T22:10:37.202Z,17.32
2018-08-24T22:15:45.177Z,17.28
2018-08-24T22:20:54.288Z,17.17
2018-08-24T22:26:05.915Z,16.99
2018-08-24T22:31:17.658Z,17.05
2018-08-24T22:36:26.474Z,17.19
2018-08-24T22:41:40.332Z,17.11
2018-08-24T22:46:53.719Z,17.18
2018-08-24T22:52:01.115Z,17.03
2018-08-24T22:57:07.851Z,16.97
2018-08-24T23:02:14.571Z,16.94
2018-08-24T23:07:22.085Z,16.97
2018-08-24T23:12:28.844Z,16.91
2018-08-24T23:17:36.201Z,16.76
2018-08-24T23:22:41.283Z,16.77
2018-08-24T23:27:44.746Z,16.81
2018-08-24T23:32:48.492Z,16.79
2018-08-24T23:37:53.502Z,16.66
2018-08-24T23:42:59.706Z,16.56
2018-08-24T23:48:08.194Z,16.46
2018-08-24T23:53:14.970Z,16.32
2018-08-24T23:58:21.674Z,16.46
